sensor_id;sensor_type;location;lat;lon;timestamp;P1;durP1;ratioP1;P2;durP2;ratioP2
39256;SDS011;67272;48.066;11.038;2023-06-10T00:02:18;9.15;;;8.25;;
39256;SDS011;67272;48.066;11.038;2023-06-10T00:04:44;9.50;;;8.70;;
39256;SDS011;67272;48.066;11.038;2023-06-10T00:07:11;9.05;;;8.25;;
39256;SDS011;67272;48.066;11.038;2023-06-10T00:09:38;9.55;;;8.75;;
39256;SDS011;67272;48.066;11.038;2023-06-10T00:12:07;9.50;;;8.75;;
39256;SDS011;67272;48.066;11.038;2023-06-10T00:14:37;9.65;;;8.85;;
39256;SDS011;67272;48.066;11.038;2023-06-10T00:17:07;8.73;;;8.02;;
39256;SDS011;67272;48.066;11.038;2023-06-10T00:19:40;9.23;;;8.50;;
39256;SDS011;67272;48.066;11.038;2023-06-10T00:22:15;9.00;;;8.30;;
39256;SDS011;67272;48.066;11.038;2023-06-10T00:24:44;8.80;;;8.10;;
39256;SDS011;67272;48.066;11.038;2023-06-10T00:27:13;9.00;;;8.20;;
39256;SDS011;67272;48.066;11.038;2023-06-10T00:29:40;8.90;;;8.20;;
39256;SDS011;67272;48.066;11.038;2023-06-10T00:32:06;9.32;;;8.45;;
39256;SDS011;67272;48.066;11.038;2023-06-10T00:34:34;9.20;;;8.40;;
39256;SDS011;67272;48.066;11.038;2023-06-10T00:37:03;9.10;;;8.40;;
39256;SDS011;67272;48.066;11.038;2023-06-10T00:39:29;8.98;;;8.25;;
39256;SDS011;67272;48.066;11.038;2023-06-10T00:41:56;8.98;;;8.27;;
39256;SDS011;67272;48.066;11.038;2023-06-10T00:44:25;9.02;;;8.25;;
39256;SDS011;67272;48.066;11.038;2023-06-10T00:46:52;8.90;;;8.10;;
39256;SDS011;67272;48.066;11.038;2023-06-10T00:49:20;9.63;;;8.82;;
39256;SDS011;67272;48.066;11.038;2023-06-10T00:51:49;10.20;;;9.40;;
39256;SDS011;67272;48.066;11.038;2023-06-10T00:54:16;9.35;;;8.45;;
39256;SDS011;67272;48.066;11.038;2023-06-10T00:56:43;9.40;;;8.60;;
39256;SDS011;67272;48.066;11.038;2023-06-10T00:59:09;8.98;;;8.27;;
39256;SDS011;67272;48.066;11.038;2023-06-10T01:01:36;8.77;;;8.07;;
39256;SDS011;67272;48.066;11.038;2023-06-10T01:04:03;9.13;;;8.43;;
39256;SDS011;67272;48.066;11.038;2023-06-10T01:11:41;8.23;;;7.43;;
39256;SDS011;67272;48.066;11.038;2023-06-10T01:14:13;8.40;;;7.70;;
39256;SDS011;67272;48.066;11.038;2023-06-10T01:16:39;8.85;;;8.05;;
39256;SDS011;67272;48.066;11.038;2023-06-10T01:19:07;8.43;;;7.75;;
39256;SDS011;67272;48.066;11.038;2023-06-10T01:21:34;8.15;;;7.45;;
39256;SDS011;67272;48.066;11.038;2023-06-10T01:24:04;8.07;;;7.43;;
39256;SDS011;67272;48.066;11.038;2023-06-10T01:26:33;8.05;;;7.32;;
39256;SDS011;67272;48.066;11.038;2023-06-10T01:32:00;8.85;;;7.90;;
39256;SDS011;67272;48.066;11.038;2023-06-10T01:34:28;8.55;;;7.85;;
39256;SDS011;67272;48.066;11.038;2023-06-10T01:36:55;8.93;;;8.23;;
39256;SDS011;67272;48.066;11.038;2023-06-10T01:39:22;8.68;;;7.93;;
39256;SDS011;67272;48.066;11.038;2023-06-10T01:41:56;8.93;;;8.13;;
39256;SDS011;67272;48.066;11.038;2023-06-10T01:44:23;8.85;;;8.05;;
39256;SDS011;67272;48.066;11.038;2023-06-10T01:46:53;8.65;;;7.95;;
39256;SDS011;67272;48.066;11.038;2023-06-10T01:49:19;9.18;;;8.27;;
39256;SDS011;67272;48.066;11.038;2023-06-10T01:51:47;8.40;;;7.70;;
39256;SDS011;67272;48.066;11.038;2023-06-10T01:54:13;9.13;;;8.30;;
39256;SDS011;67272;48.066;11.038;2023-06-10T01:56:43;8.93;;;8.10;;
39256;SDS011;67272;48.066;11.038;2023-06-10T01:59:09;8.50;;;7.80;;
39256;SDS011;67272;48.066;11.038;2023-06-10T02:01:36;9.57;;;8.77;;
39256;SDS011;67272;48.066;11.038;2023-06-10T02:04:15;9.13;;;8.32;;
39256;SDS011;67272;48.066;11.038;2023-06-10T02:06:45;9.32;;;8.52;;
39256;SDS011;67272;48.066;11.038;2023-06-10T02:09:14;8.93;;;8.13;;
39256;SDS011;67272;48.066;11.038;2023-06-10T02:11:41;9.60;;;8.70;;
39256;SDS011;67272;48.066;11.038;2023-06-10T02:14:10;9.93;;;9.13;;
39256;SDS011;67272;48.066;11.038;2023-06-10T02:16:39;9.60;;;8.80;;
39256;SDS011;67272;48.066;11.038;2023-06-10T02:19:08;9.43;;;8.63;;
39256;SDS011;67272;48.066;11.038;2023-06-10T02:21:34;9.40;;;8.60;;
39256;SDS011;67272;48.066;11.038;2023-06-10T02:24:01;9.85;;;9.05;;
39256;SDS011;67272;48.066;11.038;2023-06-10T02:26:28;9.25;;;8.45;;
39256;SDS011;67272;48.066;11.038;2023-06-10T02:28:58;8.82;;;8.13;;
39256;SDS011;67272;48.066;11.038;2023-06-10T02:31:25;9.73;;;8.80;;
39256;SDS011;67272;48.066;11.038;2023-06-10T02:33:57;9.40;;;8.50;;
39256;SDS011;67272;48.066;11.038;2023-06-10T02:36:24;9.32;;;8.52;;
39256;SDS011;67272;48.066;11.038;2023-06-10T02:38:53;9.80;;;8.85;;
39256;SDS011;67272;48.066;11.038;2023-06-10T02:41:20;9.55;;;8.75;;
39256;SDS011;67272;48.066;11.038;2023-06-10T02:43:48;9.65;;;8.85;;
39256;SDS011;67272;48.066;11.038;2023-06-10T02:46:15;9.32;;;8.52;;
39256;SDS011;67272;48.066;11.038;2023-06-10T02:48:45;9.18;;;8.43;;
39256;SDS011;67272;48.066;11.038;2023-06-10T02:51:21;9.38;;;8.57;;
39256;SDS011;67272;48.066;11.038;2023-06-10T02:53:51;9.13;;;8.32;;
39256;SDS011;67272;48.066;11.038;2023-06-10T02:56:20;8.32;;;7.63;;
39256;SDS011;67272;48.066;11.038;2023-06-10T02:58:47;9.35;;;8.50;;
39256;SDS011;67272;48.066;11.038;2023-06-10T03:01:16;9.48;;;8.60;;
39256;SDS011;67272;48.066;11.038;2023-06-10T03:04:06;8.80;;;8.00;;
39256;SDS011;67272;48.066;11.038;2023-06-10T03:06:35;9.73;;;8.80;;
39256;SDS011;67272;48.066;11.038;2023-06-10T03:09:11;8.82;;;8.13;;
39256;SDS011;67272;48.066;11.038;2023-06-10T03:11:44;8.38;;;7.68;;
39256;SDS011;67272;48.066;11.038;2023-06-10T03:14:11;9.25;;;8.35;;
39256;SDS011;67272;48.066;11.038;2023-06-10T03:16:40;9.65;;;8.85;;
39256;SDS011;67272;48.066;11.038;2023-06-10T03:19:08;9.38;;;8.57;;
39256;SDS011;67272;48.066;11.038;2023-06-10T03:21:36;9.93;;;9.02;;
39256;SDS011;67272;48.066;11.038;2023-06-10T03:24:04;9.40;;;8.60;;
39256;SDS011;67272;48.066;11.038;2023-06-10T03:26:33;10.13;;;9.23;;
39256;SDS011;67272;48.066;11.038;2023-06-10T03:29:00;9.13;;;8.32;;
39256;SDS011;67272;48.066;11.038;2023-06-10T03:31:30;9.13;;;8.23;;
39256;SDS011;67272;48.066;11.038;2023-06-10T03:33:58;9.20;;;8.40;;
39256;SDS011;67272;48.066;11.038;2023-06-10T03:36:25;9.32;;;8.52;;
39256;SDS011;67272;48.066;11.038;2023-06-10T03:38:54;9.43;;;8.55;;
39256;SDS011;67272;48.066;11.038;2023-06-10T03:41:23;9.52;;;8.65;;
39256;SDS011;67272;48.066;11.038;2023-06-10T03:43:50;9.82;;;8.93;;
39256;SDS011;67272;48.066;11.038;2023-06-10T03:46:16;9.40;;;8.60;;
39256;SDS011;67272;48.066;11.038;2023-06-10T03:48:43;9.60;;;8.80;;
39256;SDS011;67272;48.066;11.038;2023-06-10T03:51:16;9.45;;;8.63;;
39256;SDS011;67272;48.066;11.038;2023-06-10T03:53:45;9.63;;;8.75;;
39256;SDS011;67272;48.066;11.038;2023-06-10T03:56:14;9.73;;;8.82;;
39256;SDS011;67272;48.066;11.038;2023-06-10T03:58:47;9.95;;;9.15;;
39256;SDS011;67272;48.066;11.038;2023-06-10T04:01:13;9.50;;;8.65;;
39256;SDS011;67272;48.066;11.038;2023-06-10T04:03:49;9.27;;;8.57;;
39256;SDS011;67272;48.066;11.038;2023-06-10T04:06:19;9.13;;;8.32;;
39256;SDS011;67272;48.066;11.038;2023-06-10T04:08:50;9.45;;;8.68;;
39256;SDS011;67272;48.066;11.038;2023-06-10T04:11:20;9.60;;;8.80;;
39256;SDS011;67272;48.066;11.038;2023-06-10T04:13:47;10.60;;;9.70;;
39256;SDS011;67272;48.066;11.038;2023-06-10T04:16:14;9.43;;;8.63;;
39256;SDS011;67272;48.066;11.038;2023-06-10T04:18:41;9.48;;;8.68;;
39256;SDS011;67272;48.066;11.038;2023-06-10T04:21:14;9.35;;;8.55;;
39256;SDS011;67272;48.066;11.038;2023-06-10T04:23:40;9.80;;;8.90;;
39256;SDS011;67272;48.066;11.038;2023-06-10T04:26:12;9.82;;;8.93;;
39256;SDS011;67272;48.066;11.038;2023-06-10T04:28:42;9.40;;;8.60;;
39256;SDS011;67272;48.066;11.038;2023-06-10T04:31:08;9.80;;;8.90;;
39256;SDS011;67272;48.066;11.038;2023-06-10T04:33:35;9.45;;;8.65;;
39256;SDS011;67272;48.066;11.038;2023-06-10T04:36:03;9.10;;;8.23;;
39256;SDS011;67272;48.066;11.038;2023-06-10T04:38:32;9.65;;;8.75;;
39256;SDS011;67272;48.066;11.038;2023-06-10T04:40:59;9.55;;;8.60;;
39256;SDS011;67272;48.066;11.038;2023-06-10T04:43:29;9.52;;;8.73;;
39256;SDS011;67272;48.066;11.038;2023-06-10T04:45:56;8.68;;;7.88;;
39256;SDS011;67272;48.066;11.038;2023-06-10T04:48:22;8.85;;;8.15;;
39256;SDS011;67272;48.066;11.038;2023-06-10T04:50:50;9.73;;;8.82;;
39256;SDS011;67272;48.066;11.038;2023-06-10T04:53:17;9.52;;;8.73;;
39256;SDS011;67272;48.066;11.038;2023-06-10T04:55:45;9.75;;;8.85;;
39256;SDS011;67272;48.066;11.038;2023-06-10T04:58:12;9.75;;;8.85;;
39256;SDS011;67272;48.066;11.038;2023-06-10T05:00:38;9.98;;;9.07;;
39256;SDS011;67272;48.066;11.038;2023-06-10T05:03:04;10.02;;;9.13;;
39256;SDS011;67272;48.066;11.038;2023-06-10T05:05:31;9.88;;;8.98;;
39256;SDS011;67272;48.066;11.038;2023-06-10T05:07:57;10.80;;;9.82;;
39256;SDS011;67272;48.066;11.038;2023-06-10T05:10:23;10.05;;;9.15;;
39256;SDS011;67272;48.066;11.038;2023-06-10T05:12:50;9.60;;;8.77;;
39256;SDS011;67272;48.066;11.038;2023-06-10T05:15:16;9.95;;;8.98;;
39256;SDS011;67272;48.066;11.038;2023-06-10T05:17:42;9.80;;;8.90;;
39256;SDS011;67272;48.066;11.038;2023-06-10T05:20:12;10.40;;;9.50;;
39256;SDS011;67272;48.066;11.038;2023-06-10T05:22:39;9.85;;;9.00;;
39256;SDS011;67272;48.066;11.038;2023-06-10T05:25:06;10.00;;;9.10;;
39256;SDS011;67272;48.066;11.038;2023-06-10T05:27:32;9.60;;;8.73;;
39256;SDS011;67272;48.066;11.038;2023-06-10T05:29:58;9.75;;;8.85;;
39256;SDS011;67272;48.066;11.038;2023-06-10T05:32:25;9.88;;;8.98;;
39256;SDS011;67272;48.066;11.038;2023-06-10T05:34:57;10.15;;;9.25;;
39256;SDS011;67272;48.066;11.038;2023-06-10T05:37:25;9.38;;;8.57;;
39256;SDS011;67272;48.066;11.038;2023-06-10T05:39:51;10.00;;;9.02;;
39256;SDS011;67272;48.066;11.038;2023-06-10T05:42:21;10.48;;;9.50;;
39256;SDS011;67272;48.066;11.038;2023-06-10T05:44:47;10.30;;;9.02;;
39256;SDS011;67272;48.066;11.038;2023-06-10T05:47:13;9.95;;;8.93;;
39256;SDS011;67272;48.066;11.038;2023-06-10T05:49:40;9.52;;;8.60;;
39256;SDS011;67272;48.066;11.038;2023-06-10T05:52:09;9.38;;;8.57;;
39256;SDS011;67272;48.066;11.038;2023-06-10T05:54:35;9.63;;;8.73;;
39256;SDS011;67272;48.066;11.038;2023-06-10T05:57:05;9.55;;;8.70;;
39256;SDS011;67272;48.066;11.038;2023-06-10T05:59:31;8.98;;;8.18;;
39256;SDS011;67272;48.066;11.038;2023-06-10T06:02:00;9.00;;;8.30;;
39256;SDS011;67272;48.066;11.038;2023-06-10T06:04:27;9.73;;;8.75;;
39256;SDS011;67272;48.066;11.038;2023-06-10T06:06:53;9.90;;;9.10;;
39256;SDS011;67272;48.066;11.038;2023-06-10T06:09:22;9.07;;;8.27;;
39256;SDS011;67272;48.066;11.038;2023-06-10T06:11:55;9.05;;;8.32;;
39256;SDS011;67272;48.066;11.038;2023-06-10T06:14:21;9.00;;;8.13;;
39256;SDS011;67272;48.066;11.038;2023-06-10T06:16:48;8.88;;;8.07;;
39256;SDS011;67272;48.066;11.038;2023-06-10T06:19:14;8.77;;;7.95;;
39256;SDS011;67272;48.066;11.038;2023-06-10T06:21:43;9.30;;;8.30;;
39256;SDS011;67272;48.066;11.038;2023-06-10T06:24:10;9.38;;;8.57;;
39256;SDS011;67272;48.066;11.038;2023-06-10T06:26:36;8.90;;;8.10;;
39256;SDS011;67272;48.066;11.038;2023-06-10T06:29:06;9.02;;;8.13;;
39256;SDS011;67272;48.066;11.038;2023-06-10T06:31:35;8.30;;;7.60;;
39256;SDS011;67272;48.066;11.038;2023-06-10T06:34:02;8.88;;;8.18;;
39256;SDS011;67272;48.066;11.038;2023-06-10T06:36:28;9.38;;;8.52;;
39256;SDS011;67272;48.066;11.038;2023-06-10T06:38:58;8.27;;;7.57;;
39256;SDS011;67272;48.066;11.038;2023-06-10T06:41:28;9.30;;;8.50;;
39256;SDS011;67272;48.066;11.038;2023-06-10T06:43:57;8.80;;;8.00;;
39256;SDS011;67272;48.066;11.038;2023-06-10T06:46:29;8.32;;;7.63;;
39256;SDS011;67272;48.066;11.038;2023-06-10T06:48:56;8.52;;;7.82;;
39256;SDS011;67272;48.066;11.038;2023-06-10T06:51:22;7.75;;;7.15;;
39256;SDS011;67272;48.066;11.038;2023-06-10T06:53:48;8.20;;;7.50;;
39256;SDS011;67272;48.066;11.038;2023-06-10T06:56:16;8.40;;;7.60;;
39256;SDS011;67272;48.066;11.038;2023-06-10T06:58:45;8.10;;;7.40;;
39256;SDS011;67272;48.066;11.038;2023-06-10T07:01:11;7.75;;;7.05;;
39256;SDS011;67272;48.066;11.038;2023-06-10T07:03:38;8.55;;;7.85;;
39256;SDS011;67272;48.066;11.038;2023-06-10T07:06:04;7.85;;;7.25;;
39256;SDS011;67272;48.066;11.038;2023-06-10T07:08:30;7.88;;;7.18;;
39256;SDS011;67272;48.066;11.038;2023-06-10T07:11:00;7.97;;;7.28;;
39256;SDS011;67272;48.066;11.038;2023-06-10T07:13:26;6.88;;;6.32;;
39256;SDS011;67272;48.066;11.038;2023-06-10T07:15:52;6.95;;;6.35;;
39256;SDS011;67272;48.066;11.038;2023-06-10T07:18:19;6.97;;;6.38;;
39256;SDS011;67272;48.066;11.038;2023-06-10T07:20:45;7.00;;;6.40;;
39256;SDS011;67272;48.066;11.038;2023-06-10T07:23:11;6.85;;;6.35;;
39256;SDS011;67272;48.066;11.038;2023-06-10T07:25:38;7.10;;;6.53;;
39256;SDS011;67272;48.066;11.038;2023-06-10T07:28:10;6.55;;;5.95;;
39256;SDS011;67272;48.066;11.038;2023-06-10T07:30:36;6.18;;;5.68;;
39256;SDS011;67272;48.066;11.038;2023-06-10T07:33:05;5.93;;;5.35;;
39256;SDS011;67272;48.066;11.038;2023-06-10T07:35:33;5.90;;;5.40;;
39256;SDS011;67272;48.066;11.038;2023-06-10T07:37:59;5.63;;;5.22;;
39256;SDS011;67272;48.066;11.038;2023-06-10T07:40:26;6.18;;;5.68;;
39256;SDS011;67272;48.066;11.038;2023-06-10T07:42:55;5.47;;;5.07;;
39256;SDS011;67272;48.066;11.038;2023-06-10T07:45:22;5.25;;;4.85;;
39256;SDS011;67272;48.066;11.038;2023-06-10T07:47:54;6.57;;;6.07;;
39256;SDS011;67272;48.066;11.038;2023-06-10T07:50:21;5.63;;;5.22;;
39256;SDS011;67272;48.066;11.038;2023-06-10T07:52:47;5.50;;;5.10;;
39256;SDS011;67272;48.066;11.038;2023-06-10T07:55:13;5.57;;;5.05;;
39256;SDS011;67272;48.066;11.038;2023-06-10T07:57:39;5.85;;;5.35;;
39256;SDS011;67272;48.066;11.038;2023-06-10T08:00:09;5.28;;;4.85;;
39256;SDS011;67272;48.066;11.038;2023-06-10T08:02:41;5.78;;;5.28;;
39256;SDS011;67272;48.066;11.038;2023-06-10T08:05:13;5.18;;;4.78;;
39256;SDS011;67272;48.066;11.038;2023-06-10T08:07:40;5.95;;;5.45;;
39256;SDS011;67272;48.066;11.038;2023-06-10T08:10:09;5.72;;;5.22;;
39256;SDS011;67272;48.066;11.038;2023-06-10T08:12:36;6.07;;;5.57;;
39256;SDS011;67272;48.066;11.038;2023-06-10T08:15:05;6.22;;;5.72;;
39256;SDS011;67272;48.066;11.038;2023-06-10T08:17:32;5.80;;;5.40;;
39256;SDS011;67272;48.066;11.038;2023-06-10T08:19:58;5.28;;;4.82;;
39256;SDS011;67272;48.066;11.038;2023-06-10T08:22:25;4.97;;;4.47;;
39256;SDS011;67272;48.066;11.038;2023-06-10T08:24:54;5.15;;;4.75;;
39256;SDS011;67272;48.066;11.038;2023-06-10T08:27:21;4.43;;;4.13;;
39256;SDS011;67272;48.066;11.038;2023-06-10T08:29:50;4.85;;;4.45;;
39256;SDS011;67272;48.066;11.038;2023-06-10T08:32:17;4.80;;;4.50;;
39256;SDS011;67272;48.066;11.038;2023-06-10T08:34:46;5.38;;;4.97;;
39256;SDS011;67272;48.066;11.038;2023-06-10T08:37:15;4.88;;;4.47;;
39256;SDS011;67272;48.066;11.038;2023-06-10T08:39:50;5.00;;;4.60;;
39256;SDS011;67272;48.066;11.038;2023-06-10T08:42:22;5.05;;;4.63;;
39256;SDS011;67272;48.066;11.038;2023-06-10T08:44:53;5.10;;;4.70;;
39256;SDS011;67272;48.066;11.038;2023-06-10T08:47:24;4.78;;;4.47;;
39256;SDS011;67272;48.066;11.038;2023-06-10T08:49:51;5.05;;;4.75;;
39256;SDS011;67272;48.066;11.038;2023-06-10T08:52:22;4.53;;;4.22;;
39256;SDS011;67272;48.066;11.038;2023-06-10T08:54:52;4.90;;;4.50;;
39256;SDS011;67272;48.066;11.038;2023-06-10T08:57:20;4.85;;;4.45;;
39256;SDS011;67272;48.066;11.038;2023-06-10T08:59:50;5.13;;;4.65;;
39256;SDS011;67272;48.066;11.038;2023-06-10T09:02:16;5.75;;;4.82;;
39256;SDS011;67272;48.066;11.038;2023-06-10T09:04:45;5.22;;;4.82;;
39256;SDS011;67272;48.066;11.038;2023-06-10T09:07:12;4.82;;;4.53;;
39256;SDS011;67272;48.066;11.038;2023-06-10T09:09:39;5.30;;;4.90;;
39256;SDS011;67272;48.066;11.038;2023-06-10T09:12:14;5.15;;;4.75;;
39256;SDS011;67272;48.066;11.038;2023-06-10T09:14:41;5.13;;;4.78;;
39256;SDS011;67272;48.066;11.038;2023-06-10T09:17:10;5.32;;;4.93;;
39256;SDS011;67272;48.066;11.038;2023-06-10T09:19:37;5.45;;;5.03;;
39256;SDS011;67272;48.066;11.038;2023-06-10T09:22:13;5.50;;;5.10;;
39256;SDS011;67272;48.066;11.038;2023-06-10T09:24:46;4.80;;;4.40;;
39256;SDS011;67272;48.066;11.038;2023-06-10T09:27:13;5.30;;;4.80;;
39256;SDS011;67272;48.066;11.038;2023-06-10T09:29:46;4.70;;;4.32;;
39256;SDS011;67272;48.066;11.038;2023-06-10T09:32:17;4.65;;;4.35;;
39256;SDS011;67272;48.066;11.038;2023-06-10T09:34:44;5.20;;;4.80;;
39256;SDS011;67272;48.066;11.038;2023-06-10T09:37:12;4.78;;;4.47;;
39256;SDS011;67272;48.066;11.038;2023-06-10T09:39:39;5.03;;;4.72;;
39256;SDS011;67272;48.066;11.038;2023-06-10T09:42:18;5.10;;;4.72;;
39256;SDS011;67272;48.066;11.038;2023-06-10T09:44:51;5.10;;;4.80;;
39256;SDS011;67272;48.066;11.038;2023-06-10T09:47:24;5.07;;;4.72;;
39256;SDS011;67272;48.066;11.038;2023-06-10T09:49:50;5.63;;;5.22;;
39256;SDS011;67272;48.066;11.038;2023-06-10T09:52:23;4.70;;;4.40;;
39256;SDS011;67272;48.066;11.038;2023-06-10T09:54:53;5.07;;;4.68;;
39256;SDS011;67272;48.066;11.038;2023-06-10T09:57:21;5.00;;;4.70;;
39256;SDS011;67272;48.066;11.038;2023-06-10T09:59:47;5.10;;;4.70;;
39256;SDS011;67272;48.066;11.038;2023-06-10T10:02:14;4.65;;;4.35;;
39256;SDS011;67272;48.066;11.038;2023-06-10T10:04:41;5.07;;;4.68;;
39256;SDS011;67272;48.066;11.038;2023-06-10T10:07:08;4.40;;;4.10;;
39256;SDS011;67272;48.066;11.038;2023-06-10T10:09:44;4.82;;;4.50;;
39256;SDS011;67272;48.066;11.038;2023-06-10T10:12:11;4.40;;;4.10;;
39256;SDS011;67272;48.066;11.038;2023-06-10T10:14:38;5.15;;;4.75;;
39256;SDS011;67272;48.066;11.038;2023-06-10T10:17:07;4.38;;;4.07;;
39256;SDS011;67272;48.066;11.038;2023-06-10T10:19:34;4.55;;;4.22;;
39256;SDS011;67272;48.066;11.038;2023-06-10T10:22:06;4.55;;;4.25;;
39256;SDS011;67272;48.066;11.038;2023-06-10T10:24:44;4.80;;;4.50;;
39256;SDS011;67272;48.066;11.038;2023-06-10T10:27:35;4.72;;;4.32;;
39256;SDS011;67272;48.066;11.038;2023-06-10T10:30:02;4.40;;;4.10;;
39256;SDS011;67272;48.066;11.038;2023-06-10T10:35:20;4.63;;;4.22;;
39256;SDS011;67272;48.066;11.038;2023-06-10T10:37:49;4.53;;;4.22;;
39256;SDS011;67272;48.066;11.038;2023-06-10T10:40:15;4.03;;;3.72;;
39256;SDS011;67272;48.066;11.038;2023-06-10T10:42:41;4.28;;;3.97;;
39256;SDS011;67272;48.066;11.038;2023-06-10T10:45:08;4.60;;;4.30;;
39256;SDS011;67272;48.066;11.038;2023-06-10T10:47:35;4.50;;;4.20;;
39256;SDS011;67272;48.066;11.038;2023-06-10T10:50:21;4.72;;;4.43;;
39256;SDS011;67272;48.066;11.038;2023-06-10T10:52:59;4.20;;;3.90;;
39256;SDS011;67272;48.066;11.038;2023-06-10T10:55:26;4.50;;;4.20;;
39256;SDS011;67272;48.066;11.038;2023-06-10T10:57:56;4.78;;;4.45;;
39256;SDS011;67272;48.066;11.038;2023-06-10T11:00:33;4.25;;;3.97;;
39256;SDS011;67272;48.066;11.038;2023-06-10T11:10:57;4.40;;;4.10;;
39256;SDS011;67272;48.066;11.038;2023-06-10T11:13:25;4.32;;;4.03;;
39256;SDS011;67272;48.066;11.038;2023-06-10T11:15:58;4.45;;;4.15;;
39256;SDS011;67272;48.066;11.038;2023-06-10T11:18:30;4.80;;;4.40;;
39256;SDS011;67272;48.066;11.038;2023-06-10T11:21:02;4.68;;;4.28;;
39256;SDS011;67272;48.066;11.038;2023-06-10T11:31:23;3.80;;;3.60;;
39256;SDS011;67272;48.066;11.038;2023-06-10T11:33:54;4.18;;;3.88;;
39256;SDS011;67272;48.066;11.038;2023-06-10T11:36:24;4.18;;;3.88;;
39256;SDS011;67272;48.066;11.038;2023-06-10T11:38:53;4.20;;;3.90;;
39256;SDS011;67272;48.066;11.038;2023-06-10T11:41:26;3.92;;;3.63;;
39256;SDS011;67272;48.066;11.038;2023-06-10T11:46:38;4.03;;;3.72;;
39256;SDS011;67272;48.066;11.038;2023-06-10T11:49:07;4.00;;;3.75;;
39256;SDS011;67272;48.066;11.038;2023-06-10T11:51:38;3.60;;;3.40;;
39256;SDS011;67272;48.066;11.038;2023-06-10T11:54:08;3.58;;;3.38;;
39256;SDS011;67272;48.066;11.038;2023-06-10T11:56:35;3.40;;;3.10;;
39256;SDS011;67272;48.066;11.038;2023-06-10T11:59:02;3.35;;;3.03;;
39256;SDS011;67272;48.066;11.038;2023-06-10T12:01:33;3.50;;;3.30;;
39256;SDS011;67272;48.066;11.038;2023-06-10T12:04:00;3.33;;;3.13;;
39256;SDS011;67272;48.066;11.038;2023-06-10T12:06:27;3.97;;;3.67;;
39256;SDS011;67272;48.066;11.038;2023-06-10T12:08:53;3.55;;;3.35;;
39256;SDS011;67272;48.066;11.038;2023-06-10T12:11:21;3.88;;;3.58;;
39256;SDS011;67272;48.066;11.038;2023-06-10T12:13:54;3.15;;;2.95;;
39256;SDS011;67272;48.066;11.038;2023-06-10T12:16:20;4.00;;;3.80;;
39256;SDS011;67272;48.066;11.038;2023-06-10T12:18:47;3.35;;;3.15;;
39256;SDS011;67272;48.066;11.038;2023-06-10T12:21:25;3.58;;;3.28;;
39256;SDS011;67272;48.066;11.038;2023-06-10T12:24:08;3.20;;;3.00;;
39256;SDS011;67272;48.066;11.038;2023-06-10T12:26:42;3.40;;;3.20;;
39256;SDS011;67272;48.066;11.038;2023-06-10T12:29:20;3.00;;;2.72;;
39256;SDS011;67272;48.066;11.038;2023-06-10T12:34:27;3.10;;;2.90;;
39256;SDS011;67272;48.066;11.038;2023-06-10T12:36:54;3.10;;;2.90;;
39256;SDS011;67272;48.066;11.038;2023-06-10T12:39:23;2.90;;;2.70;;
39256;SDS011;67272;48.066;11.038;2023-06-10T12:41:53;2.70;;;2.50;;
39256;SDS011;67272;48.066;11.038;2023-06-10T12:44:35;3.70;;;3.40;;
39256;SDS011;67272;48.066;11.038;2023-06-10T12:47:10;3.38;;;3.17;;
39256;SDS011;67272;48.066;11.038;2023-06-10T12:49:46;4.03;;;3.72;;
39256;SDS011;67272;48.066;11.038;2023-06-10T12:52:15;3.40;;;3.17;;
39256;SDS011;67272;48.066;11.038;2023-06-10T12:54:42;3.60;;;3.30;;
39256;SDS011;67272;48.066;11.038;2023-06-10T12:57:17;3.88;;;3.60;;
39256;SDS011;67272;48.066;11.038;2023-06-10T12:59:47;3.70;;;3.30;;
39256;SDS011;67272;48.066;11.038;2023-06-10T13:02:18;3.50;;;3.20;;
39256;SDS011;67272;48.066;11.038;2023-06-10T13:04:52;3.22;;;3.03;;
39256;SDS011;67272;48.066;11.038;2023-06-10T13:07:21;3.92;;;3.60;;
39256;SDS011;67272;48.066;11.038;2023-06-10T13:09:48;3.97;;;3.70;;
39256;SDS011;67272;48.066;11.038;2023-06-10T13:12:14;3.20;;;3.00;;
39256;SDS011;67272;48.066;11.038;2023-06-10T13:14:42;4.00;;;3.70;;
39256;SDS011;67272;48.066;11.038;2023-06-10T13:17:09;3.58;;;3.38;;
39256;SDS011;67272;48.066;11.038;2023-06-10T13:19:38;3.88;;;3.58;;
39256;SDS011;67272;48.066;11.038;2023-06-10T13:22:05;3.75;;;3.50;;
39256;SDS011;67272;48.066;11.038;2023-06-10T13:24:31;3.40;;;3.20;;
39256;SDS011;67272;48.066;11.038;2023-06-10T13:27:00;3.70;;;3.40;;
39256;SDS011;67272;48.066;11.038;2023-06-10T13:29:27;3.72;;;3.42;;
39256;SDS011;67272;48.066;11.038;2023-06-10T13:31:53;3.47;;;3.25;;
39256;SDS011;67272;48.066;11.038;2023-06-10T13:34:19;3.58;;;3.38;;
39256;SDS011;67272;48.066;11.038;2023-06-10T13:36:49;3.58;;;3.38;;
39256;SDS011;67272;48.066;11.038;2023-06-10T13:39:15;3.83;;;3.53;;
39256;SDS011;67272;48.066;11.038;2023-06-10T13:41:42;3.67;;;3.38;;
39256;SDS011;67272;48.066;11.038;2023-06-10T13:44:11;4.30;;;3.90;;
39256;SDS011;67272;48.066;11.038;2023-06-10T13:46:43;4.00;;;3.70;;
39256;SDS011;67272;48.066;11.038;2023-06-10T13:49:15;4.13;;;3.83;;
39256;SDS011;67272;48.066;11.038;2023-06-10T13:51:41;3.72;;;3.42;;
39256;SDS011;67272;48.066;11.038;2023-06-10T13:54:08;4.15;;;3.85;;
39256;SDS011;67272;48.066;11.038;2023-06-10T13:56:34;4.07;;;3.78;;
39256;SDS011;67272;48.066;11.038;2023-06-10T13:59:03;4.13;;;3.83;;
39256;SDS011;67272;48.066;11.038;2023-06-10T14:01:30;4.40;;;4.10;;
39256;SDS011;67272;48.066;11.038;2023-06-10T14:03:56;4.60;;;4.20;;
39256;SDS011;67272;48.066;11.038;2023-06-10T14:06:22;4.45;;;4.18;;
39256;SDS011;67272;48.066;11.038;2023-06-10T14:08:52;4.47;;;4.18;;
39256;SDS011;67272;48.066;11.038;2023-06-10T14:11:20;4.53;;;4.22;;
39256;SDS011;67272;48.066;11.038;2023-06-10T14:13:46;4.13;;;3.83;;
39256;SDS011;67272;48.066;11.038;2023-06-10T14:16:13;4.05;;;3.80;;
39256;SDS011;67272;48.066;11.038;2023-06-10T14:18:39;4.22;;;3.92;;
39256;SDS011;67272;48.066;11.038;2023-06-10T14:21:05;4.53;;;4.22;;
39256;SDS011;67272;48.066;11.038;2023-06-10T14:23:35;4.30;;;4.00;;
39256;SDS011;67272;48.066;11.038;2023-06-10T14:26:04;3.92;;;3.72;;
39256;SDS011;67272;48.066;11.038;2023-06-10T14:28:36;4.15;;;3.85;;
39256;SDS011;67272;48.066;11.038;2023-06-10T14:31:03;3.85;;;3.65;;
39256;SDS011;67272;48.066;11.038;2023-06-10T14:33:29;4.97;;;4.57;;
39256;SDS011;67272;48.066;11.038;2023-06-10T14:35:56;4.72;;;4.40;;
39256;SDS011;67272;48.066;11.038;2023-06-10T14:38:23;4.63;;;4.22;;
39256;SDS011;67272;48.066;11.038;2023-06-10T14:40:49;4.25;;;3.90;;
39256;SDS011;67272;48.066;11.038;2023-06-10T14:43:16;4.57;;;4.28;;
39256;SDS011;67272;48.066;11.038;2023-06-10T14:45:42;4.65;;;4.28;;
39256;SDS011;67272;48.066;11.038;2023-06-10T14:48:11;3.95;;;3.75;;
39256;SDS011;67272;48.066;11.038;2023-06-10T14:50:38;3.88;;;3.58;;
39256;SDS011;67272;48.066;11.038;2023-06-10T14:53:06;4.03;;;3.72;;
39256;SDS011;67272;48.066;11.038;2023-06-10T14:55:32;4.10;;;3.70;;
39256;SDS011;67272;48.066;11.038;2023-06-10T14:57:58;4.32;;;4.03;;
39256;SDS011;67272;48.066;11.038;2023-06-10T15:00:24;4.90;;;4.50;;
39256;SDS011;67272;48.066;11.038;2023-06-10T15:02:51;4.35;;;4.05;;
39256;SDS011;67272;48.066;11.038;2023-06-10T15:05:20;4.20;;;3.90;;
39256;SDS011;67272;48.066;11.038;2023-06-10T15:07:46;4.28;;;3.97;;
39256;SDS011;67272;48.066;11.038;2023-06-10T15:10:13;5.43;;;5.03;;
39256;SDS011;67272;48.066;11.038;2023-06-10T15:12:40;5.03;;;4.63;;
39256;SDS011;67272;48.066;11.038;2023-06-10T15:15:07;4.50;;;4.10;;